Bookmark and Share
Track history (hours):
 

Doris

Last reported at 2014-Apr-22 10:25 UTC. Time now 2014-Apr-23 09:14 UTC.
Position N 30°04' W 090°54'.

Length 182 m; draft 6.2 m.

Type: Cargo ship. MMSI: 215080000.

NotesDate/timePositionNaut miles runAvg speedWind from/ knotsBaromVisibWave heightAir tempDewpointWater temp
2014-Apr-22 10:25N 30°04' W 090°54'0 0.0
2014-Apr-22 09:19N 30°04' W 090°54'0 0.0
2014-Apr-22 08:29N 30°04' W 090°54'4 4.8
2014-Apr-22 07:33N 30°01' W 090°50'6 6.4
2014-Apr-22 06:32N 30°01' W 090°43'6 6.3
2014-Apr-22 05:33N 30°03' W 090°36'6 6.5
2014-Apr-22 04:34N 30°02' W 090°28'6 5.5
2014-Apr-22 03:33N 29°59' W 090°24'6 5.6
2014-Apr-22 02:31N 29°58' W 090°17'137 5.4
2014-Apr-21 01:16N 27°56' W 091°28'2011.3
2014-Apr-20 23:30N 27°54' W 091°51'142 9.4
2014-Apr-20 08:29N 28°33' W 094°25'5611.4
2014-Apr-20 03:33N 29°25' W 094°49'1212.3
2014-Apr-20 02:33N 29°35' W 094°56'1010.1
2014-Apr-20 01:33N 29°44' W 095°03'3 0.1
2014-Apr-18 15:26N 29°45' W 095°06'0 0.0
2014-Apr-17 15:20N 29°45' W 095°06'0 0.0
2014-Apr-17 14:26N 29°45' W 095°06'0 0.0
2014-Apr-16 21:16N 29°45' W 095°06'1 1.4
2014-Apr-16 20:33N 29°45' W 095°06'8 8.0
2014-Apr-16 19:33N 29°40' W 094°59'1211.5
2014-Apr-16 18:33N 29°30' W 094°52'  
2014-Apr-13 03:25N 25°53' W 079°27'1011.3
2014-Apr-13 02:33N 26°03' W 079°28'1111.5
2014-Apr-13 01:33N 26°15' W 079°28'2311.5
2014-Apr-12 23:31N 26°38' W 079°29'  

Dump ship's entire track history

sailing weather and tide predictions

Doris — 9HA2632 — position and weather